Westboro, Ohio
Current Conditions -  °F | °C
As of 9:54 PM on Tuesday 25 Nov 2014 (Local Time) from KILN Reporting Station
Clear Clear  
Wind Chill: -4°   Ceiling: Unl
Heat Index: -1°   Visibility: 7mi
Dew Point: -3°   Wind: 6mph
Humidity: 85%   Direction: 20°NNE
Pressure: 30.17"   Gusts: NA
Location:  39.2883°N, 83.8861°W
Report Text: KILN 260254Z AUTO 02005KT 7SM CLR M01/M03 A3017 RMK AO2 SLP240 T10111033 53007
Loading
Personal Weather Stations






























Interactive Weather Map New forecast layout! Learn more

10-Day Weather Forecast

Advertisements
Track Severe Weather on mobile